createdAt,value
2022-09-26T00:01:46.058Z,99550.09
2022-09-26T00:04:22.743Z,99552.50
2022-09-26T00:06:52.520Z,99550.16
2022-09-26T00:09:22.447Z,99546.47
2022-09-26T00:11:51.169Z,99543.41
2022-09-26T00:14:23.225Z,99534.78
2022-09-26T00:16:53.201Z,99529.53
2022-09-26T00:19:22.532Z,99533.13
2022-09-26T00:21:51.425Z,99528.53
2022-09-26T00:24:20.489Z,99529.81
2022-09-26T00:26:49.586Z,99529.31
2022-09-26T00:29:18.342Z,99523.97
2022-09-26T00:31:49.206Z,99523.88
2022-09-26T00:34:20.632Z,99519.22
2022-09-26T00:36:50.470Z,99518.72
2022-09-26T00:39:19.389Z,99518.63
2022-09-26T00:41:48.279Z,99513.56
2022-09-26T00:44:50.676Z,99515.16
2022-09-26T00:47:41.192Z,99510.03
2022-09-26T00:50:17.049Z,99524.03
2022-09-26T00:52:51.119Z,99521.28
2022-09-26T00:55:23.050Z,99524.19
2022-09-26T00:57:55.034Z,99524.13
2022-09-26T01:00:24.084Z,99535.25
2022-09-26T01:02:53.997Z,99522.53
2022-09-26T01:05:25.693Z,99524.88
2022-09-26T01:07:54.012Z,99519.44
2022-09-26T01:10:23.197Z,99518.84
2022-09-26T01:12:52.408Z,99519.31
2022-09-26T01:15:23.498Z,99511.91
2022-09-26T01:17:52.822Z,99514.34
2022-09-26T01:20:36.755Z,99513.13
2022-09-26T01:23:49.631Z,99505.88
2022-09-26T01:26:31.423Z,99500.59
2022-09-26T01:29:17.517Z,99500.47
2022-09-26T01:32:07.683Z,99502.25
2022-09-26T01:34:42.320Z,99494.00
2022-09-26T01:37:19.717Z,99503.31
2022-09-26T01:39:56.450Z,99498.50
2022-09-26T01:42:30.452Z,99495.31
2022-09-26T01:45:02.989Z,99498.22
2022-09-26T01:47:41.082Z,99492.94
2022-09-26T01:50:16.480Z,99485.53
2022-09-26T01:52:47.982Z,99484.44
2022-09-26T01:55:19.306Z,99489.75
2022-09-26T01:57:50.429Z,99491.56
2022-09-26T02:00:19.839Z,99487.69
2022-09-26T02:02:51.584Z,99495.59
2022-09-26T02:05:28.204Z,99491.16
2022-09-26T02:07:59.952Z,99494.53
2022-09-26T02:10:31.531Z,99497.91
2022-09-26T02:13:04.745Z,99498.16
2022-09-26T02:15:35.977Z,99490.38
2022-09-26T02:18:15.120Z,99492.91
2022-09-26T02:20:49.960Z,99485.84
2022-09-26T02:23:18.845Z,99488.47
2022-09-26T02:25:48.037Z,99484.38
2022-09-26T02:28:17.312Z,99488.00
2022-09-26T02:30:47.431Z,99484.97
2022-09-26T02:33:17.811Z,99482.25
2022-09-26T02:35:54.296Z,99490.16
2022-09-26T02:38:23.841Z,99486.16
2022-09-26T02:41:05.464Z,99489.47
2022-09-26T02:43:45.723Z,99487.19
2022-09-26T02:46:26.751Z,99487.19
2022-09-26T02:49:08.233Z,99481.59
2022-09-26T02:51:49.912Z,99483.28
2022-09-26T02:54:24.338Z,99490.09
2022-09-26T02:57:05.071Z,99484.97
2022-09-26T02:59:41.455Z,99475.84
2022-09-26T03:02:15.927Z,99484.13
2022-09-26T03:04:53.433Z,99480.66
2022-09-26T03:07:25.627Z,99475.44
2022-09-26T03:09:54.815Z,99478.34
2022-09-26T03:12:24.872Z,99479.06
2022-09-26T03:14:58.428Z,99477.69
2022-09-26T03:17:28.329Z,99478.66
2022-09-26T03:20:03.420Z,99484.88
2022-09-26T03:23:07.795Z,99475.75
2022-09-26T03:25:36.444Z,99468.28
2022-09-26T03:28:12.453Z,99469.41
2022-09-26T03:30:42.033Z,99467.75
2022-09-26T03:33:30.644Z,99468.88
2022-09-26T03:36:00.582Z,99459.88
2022-09-26T03:38:30.691Z,99461.66
2022-09-26T03:41:09.815Z,99450.59
2022-09-26T03:43:57.785Z,99458.75
2022-09-26T03:46:29.455Z,99452.81
2022-09-26T03:48:59.149Z,99450.19
2022-09-26T03:51:27.979Z,99449.50
2022-09-26T03:53:59.260Z,99450.19
2022-09-26T03:56:29.031Z,99449.22
2022-09-26T03:58:57.710Z,99455.16
2022-09-26T04:01:26.715Z,99449.50
2022-09-26T04:03:55.562Z,99445.22
2022-09-26T04:06:24.392Z,99446.59
2022-09-26T04:08:54.301Z,99452.81
2022-09-26T04:11:25.247Z,99451.56
2022-09-26T04:13:54.505Z,99454.19
2022-09-26T04:16:30.551Z,99454.63
2022-09-26T04:19:12.205Z,99448.38
2022-09-26T04:21:42.163Z,99449.22
2022-09-26T04:24:14.848Z,99449.34
2022-09-26T04:26:46.098Z,99451.69
2022-09-26T04:29:15.577Z,99446.28
2022-09-26T04:32:19.681Z,99441.69
2022-09-26T04:35:08.054Z,99450.00
2022-09-26T04:37:38.236Z,99445.59
2022-09-26T04:40:07.826Z,99437.28
2022-09-26T04:42:42.747Z,99437.81
2022-09-26T04:45:12.110Z,99431.75
2022-09-26T04:47:41.154Z,99443.25
2022-09-26T04:50:30.344Z,99437.69
2022-09-26T04:53:07.506Z,99435.59
2022-09-26T04:55:44.825Z,99429.81
2022-09-26T04:58:15.684Z,99434.22
2022-09-26T05:00:45.651Z,99431.72
2022-09-26T05:03:17.313Z,99427.28
2022-09-26T05:05:47.575Z,99436.97
2022-09-26T05:08:16.897Z,99433.91
2022-09-26T05:10:46.650Z,99431.34
2022-09-26T05:13:16.801Z,99429.41
2022-09-26T05:15:46.457Z,99433.28
2022-09-26T05:18:15.672Z,99431.44
2022-09-26T05:20:48.446Z,99424.91
2022-09-26T05:23:43.704Z,99428.34
2022-09-26T05:26:20.510Z,99429.16
2022-09-26T05:28:53.100Z,99426.00
2022-09-26T05:31:29.205Z,99417.81
2022-09-26T05:33:58.152Z,99417.34
2022-09-26T05:36:27.353Z,99417.34
2022-09-26T05:38:56.185Z,99417.66
2022-09-26T05:41:23.995Z,99408.97
2022-09-26T05:43:56.107Z,99409.66
2022-09-26T05:46:25.966Z,99407.66
2022-09-26T05:48:57.316Z,99401.78
2022-09-26T05:51:27.244Z,99410.72
2022-09-26T05:53:57.836Z,99397.88
2022-09-26T05:56:28.719Z,99400.97
2022-09-26T05:59:22.655Z,99408.56
2022-09-26T06:02:29.594Z,99408.44
2022-09-26T06:05:16.898Z,99413.59
2022-09-26T06:08:06.088Z,99409.56
2022-09-26T06:10:45.378Z,99414.47
2022-09-26T06:13:15.468Z,99410.41
2022-09-26T06:15:52.239Z,99406.13
2022-09-26T06:18:21.087Z,99417.41
2022-09-26T06:20:50.025Z,99406.91
2022-09-26T06:23:18.785Z,99418.88
2022-09-26T06:25:48.575Z,99418.66
2022-09-26T06:28:18.223Z,99421.16
2022-09-26T06:30:47.076Z,99422.25
2022-09-26T06:33:32.568Z,99415.78
2022-09-26T06:36:28.583Z,99411.13
2022-09-26T06:38:57.988Z,99413.25
2022-09-26T06:41:28.718Z,99414.91
2022-09-26T06:43:57.934Z,99418.31
2022-09-26T06:46:48.997Z,99418.03
2022-09-26T06:49:24.759Z,99415.53
2022-09-26T06:52:15.940Z,99418.09
2022-09-26T06:54:45.441Z,99422.06
2022-09-26T06:57:15.549Z,99421.31
2022-09-26T06:59:44.468Z,99418.41
2022-09-26T07:02:28.679Z,99411.72
2022-09-26T07:05:18.620Z,99402.47
2022-09-26T07:07:53.457Z,99411.91
2022-09-26T07:10:29.124Z,99409.66
2022-09-26T07:13:05.858Z,99406.63
2022-09-26T07:15:34.926Z,99407.50
2022-09-26T07:18:12.091Z,99392.97
2022-09-26T07:20:57.493Z,99406.06
2022-09-26T07:23:47.854Z,99403.44
2022-09-26T07:26:18.851Z,99415.03
2022-09-26T07:28:52.210Z,99414.28
2022-09-26T07:31:24.341Z,99415.16
2022-09-26T07:34:18.319Z,99410.72
2022-09-26T07:36:49.675Z,99421.88
2022-09-26T07:39:18.530Z,99409.88
2022-09-26T07:41:47.524Z,99400.31
2022-09-26T07:45:08.723Z,99398.00
2022-09-26T07:47:22.174Z,99390.31
2022-09-26T07:50:08.510Z,99382.75
2022-09-26T07:52:46.849Z,99384.50
2022-09-26T07:55:23.088Z,99387.91
2022-09-26T07:58:10.345Z,99370.56
2022-09-26T08:01:00.184Z,99365.53
2022-09-26T08:03:49.555Z,99362.13
2022-09-26T08:06:27.897Z,99368.28
2022-09-26T08:08:58.425Z,99376.28
2022-09-26T08:11:47.543Z,99381.44
2022-09-26T08:14:37.595Z,99373.03
2022-09-26T08:17:23.399Z,99369.25
2022-09-26T08:19:51.952Z,99366.78
2022-09-26T08:22:20.793Z,99370.56
2022-09-26T08:24:54.959Z,99375.41
2022-09-26T08:27:38.654Z,99361.03
2022-09-26T08:30:10.708Z,99347.19
2022-09-26T08:32:39.744Z,99365.47
2022-09-26T08:35:15.005Z,99369.97
2022-09-26T08:37:56.534Z,99369.06
2022-09-26T08:40:49.702Z,99373.03
2022-09-26T08:43:59.479Z,99369.16
2022-09-26T08:46:52.600Z,99361.34
2022-09-26T08:49:44.279Z,99361.91
2022-09-26T08:52:23.890Z,99360.72
2022-09-26T08:54:54.740Z,99356.22
2022-09-26T08:57:32.038Z,99352.50
2022-09-26T09:00:00.872Z,99352.94
2022-09-26T09:02:40.391Z,99352.13
2022-09-26T09:05:17.577Z,99342.69
2022-09-26T09:07:49.917Z,99344.16
2022-09-26T09:10:20.734Z,99343.72
2022-09-26T09:13:06.877Z,99337.47
2022-09-26T09:15:57.027Z,99329.00
2022-09-26T09:18:56.599Z,99325.25
2022-09-26T09:21:52.321Z,99325.59
2022-09-26T09:24:47.629Z,99326.81
2022-09-26T09:30:21.332Z,99321.84
2022-09-26T09:32:59.295Z,99331.50
2022-09-26T09:35:49.026Z,99330.75
2022-09-26T09:38:40.749Z,99327.97
2022-09-26T09:41:36.119Z,99324.88
2022-09-26T09:44:06.988Z,99323.09
2022-09-26T09:46:41.141Z,99322.44
2022-09-26T09:49:20.862Z,99303.66
2022-09-26T09:52:01.934Z,99310.16
2022-09-26T09:54:40.145Z,99320.41
2022-09-26T09:57:34.736Z,99306.72
2022-09-26T10:00:10.809Z,99321.59
2022-09-26T10:03:17.986Z,99310.22
2022-09-26T10:05:48.089Z,99312.09
2022-09-26T10:08:31.458Z,99311.41
2022-09-26T10:11:23.382Z,99311.47
2022-09-26T10:14:05.268Z,99317.13
2022-09-26T10:17:20.602Z,99310.78
2022-09-26T10:19:53.822Z,99314.16
2022-09-26T10:22:32.585Z,99309.59
2022-09-26T10:25:03.913Z,99306.56
2022-09-26T10:27:37.067Z,99304.72
2022-09-26T10:30:21.927Z,99302.69
2022-09-26T10:32:56.726Z,99301.50
2022-09-26T10:35:47.561Z,99300.50
2022-09-26T10:38:23.447Z,99296.09
2022-09-26T10:41:25.415Z,99288.66
2022-09-26T10:43:57.675Z,99286.78
2022-09-26T10:46:46.847Z,99298.94
2022-09-26T10:49:41.079Z,99287.16
2022-09-26T10:52:31.955Z,99292.81
2022-09-26T10:55:04.831Z,99298.66
2022-09-26T10:57:36.874Z,99287.19
2022-09-26T11:00:07.633Z,99296.19
2022-09-26T11:02:37.827Z,99278.69
2022-09-26T11:05:25.312Z,99282.84
2022-09-26T11:08:00.559Z,99282.88
2022-09-26T11:10:42.331Z,99269.59
2022-09-26T11:13:32.800Z,99279.31
2022-09-26T11:16:13.758Z,99283.22
2022-09-26T11:18:52.953Z,99273.06
2022-09-26T11:21:29.253Z,99265.53
2022-09-26T11:24:12.876Z,99271.97
2022-09-26T11:26:49.746Z,99266.47
2022-09-26T11:29:23.333Z,99281.13
2022-09-26T11:32:07.301Z,99265.28
2022-09-26T11:35:02.526Z,99261.38
2022-09-26T11:37:40.157Z,99265.00
2022-09-26T11:40:24.099Z,99256.25
2022-09-26T11:43:05.117Z,99247.09
2022-09-26T11:45:47.473Z,99253.31
2022-09-26T11:48:51.777Z,99241.66
2022-09-26T11:52:04.903Z,99248.91
2022-09-26T11:54:45.784Z,99240.78
2022-09-26T11:57:29.758Z,99253.09
2022-09-26T12:00:08.495Z,99242.31
2022-09-26T12:03:26.551Z,99236.09
2022-09-26T12:05:59.787Z,99241.47
2022-09-26T12:08:51.851Z,99234.06
2022-09-26T12:11:27.774Z,99240.16
2022-09-26T12:14:03.055Z,99234.66
2022-09-26T12:16:36.372Z,99233.56
2022-09-26T12:19:12.861Z,99231.47
2022-09-26T12:22:10.708Z,99225.78
2022-09-26T12:24:45.359Z,99225.34
2022-09-26T12:27:18.298Z,99217.50
2022-09-26T12:29:51.929Z,99203.28
2022-09-26T12:32:32.422Z,99211.06
2022-09-26T12:35:04.346Z,99217.91
2022-09-26T12:37:49.265Z,99215.56
2022-09-26T12:40:25.847Z,99210.88
2022-09-26T12:43:21.516Z,99219.34
2022-09-26T12:46:08.258Z,99212.22
2022-09-26T12:48:52.225Z,99216.94
2022-09-26T12:51:28.744Z,99205.84
2022-09-26T12:54:23.438Z,99191.94
2022-09-26T12:56:54.870Z,99193.69
2022-09-26T12:59:38.717Z,99193.00
2022-09-26T13:02:41.812Z,99190.38
2022-09-26T13:05:39.698Z,99196.69
2022-09-26T13:08:12.989Z,99185.06
2022-09-26T13:10:52.734Z,99183.69
2022-09-26T13:13:52.633Z,99186.56
2022-09-26T13:16:31.901Z,99174.34
2022-09-26T13:19:07.266Z,99173.69
2022-09-26T13:21:45.801Z,99168.88
2022-09-26T13:24:18.984Z,99167.13
2022-09-26T13:26:50.803Z,99172.84
2022-09-26T13:29:23.105Z,99168.78
2022-09-26T13:31:58.923Z,99165.19
2022-09-26T13:34:34.903Z,99159.16
2022-09-26T13:37:05.272Z,99171.81
2022-09-26T13:39:36.127Z,99162.63
2022-09-26T13:42:09.167Z,99163.72
2022-09-26T13:44:53.318Z,99175.00
2022-09-26T13:47:28.312Z,99169.50
2022-09-26T13:50:04.588Z,99164.63
2022-09-26T13:52:41.160Z,99146.16
2022-09-26T13:55:16.517Z,99153.88
2022-09-26T13:57:52.483Z,99157.94
2022-09-26T14:00:48.875Z,99145.59
2022-09-26T14:03:40.865Z,99157.59
2022-09-26T14:06:36.681Z,99152.97
2022-09-26T14:09:28.786Z,99149.94
2022-09-26T14:12:21.456Z,99148.09
2022-09-26T14:15:17.533Z,99146.75
2022-09-26T14:18:15.534Z,99149.19
2022-09-26T14:20:55.470Z,99147.78
2022-09-26T14:23:43.694Z,99144.84
2022-09-26T14:26:14.107Z,99147.88
2022-09-26T14:28:51.776Z,99142.25
2022-09-26T14:31:39.890Z,99148.50
2022-09-26T14:34:17.500Z,99147.00
2022-09-26T14:36:47.041Z,99144.69
2022-09-26T14:39:36.389Z,99147.00
2022-09-26T14:42:23.950Z,99142.63
2022-09-26T14:44:57.449Z,99138.91
2022-09-26T14:47:27.499Z,99137.28
2022-09-26T14:50:01.407Z,99143.38
2022-09-26T14:52:30.695Z,99142.22
2022-09-26T14:55:02.623Z,99143.94
2022-09-26T14:57:33.445Z,99142.34
2022-09-26T15:00:03.608Z,99143.59
2022-09-26T15:02:39.513Z,99156.22
2022-09-26T15:05:22.344Z,99160.75
2022-09-26T15:07:52.585Z,99157.00
2022-09-26T15:10:25.539Z,99156.88
2022-09-26T15:13:03.095Z,99157.84
2022-09-26T15:15:48.795Z,99159.47
2022-09-26T15:18:25.661Z,99155.38
2022-09-26T15:21:03.248Z,99149.88
2022-09-26T15:23:34.684Z,99159.31
2022-09-26T15:26:06.143Z,99160.78
2022-09-26T15:28:35.386Z,99167.78
2022-09-26T15:31:21.351Z,99160.81
2022-09-26T15:33:56.383Z,99161.00
2022-09-26T15:36:25.217Z,99162.41
2022-09-26T15:38:53.973Z,99163.19
2022-09-26T15:41:41.569Z,99172.66
2022-09-26T15:44:12.085Z,99167.38
2022-09-26T15:46:41.783Z,99170.25
2022-09-26T15:49:15.369Z,99163.31
2022-09-26T15:51:44.626Z,99171.34
2022-09-26T15:54:21.817Z,99168.28
2022-09-26T15:56:54.788Z,99165.84
2022-09-26T15:59:27.221Z,99167.09
2022-09-26T16:01:55.809Z,99169.53
2022-09-26T16:04:27.260Z,99170.34
2022-09-26T16:07:01.372Z,99170.75
2022-09-26T16:09:33.338Z,99169.72
2022-09-26T16:12:05.491Z,99166.66
2022-09-26T16:14:40.437Z,99165.38
2022-09-26T16:17:21.619Z,99152.06
2022-09-26T16:19:52.287Z,99156.34
2022-09-26T16:22:40.624Z,99155.50
2022-09-26T16:25:29.744Z,99158.34
2022-09-26T16:28:32.234Z,99154.47
2022-09-26T16:31:14.917Z,99157.13
2022-09-26T16:33:51.424Z,99151.59
2022-09-26T16:36:23.649Z,99151.41
2022-09-26T16:38:54.447Z,99150.78
2022-09-26T16:44:27.569Z,99156.53
2022-09-26T16:47:03.372Z,99144.84
2022-09-26T16:49:46.244Z,99157.72
2022-09-26T16:52:31.612Z,99159.34
2022-09-26T16:55:01.554Z,99160.38
2022-09-26T16:57:32.514Z,99162.00
2022-09-26T17:00:29.215Z,99160.34
2022-09-26T17:02:59.334Z,99164.63
2022-09-26T17:05:28.142Z,99160.75
2022-09-26T17:07:56.654Z,99160.72
2022-09-26T17:10:26.852Z,99156.22
2022-09-26T17:12:56.455Z,99153.75
2022-09-26T17:15:30.174Z,99157.00
2022-09-26T17:18:01.268Z,99154.06
2022-09-26T17:20:30.262Z,99149.75
2022-09-26T17:23:16.818Z,99153.19
2022-09-26T17:25:54.119Z,99149.84
2022-09-26T17:28:30.029Z,99149.66
2022-09-26T17:31:06.378Z,99154.53
2022-09-26T17:33:40.742Z,99155.38
2022-09-26T17:36:12.223Z,99159.06
2022-09-26T17:38:41.305Z,99151.47
2022-09-26T17:41:12.648Z,99153.91
2022-09-26T17:43:41.313Z,99152.28
2022-09-26T17:46:15.515Z,99163.50
2022-09-26T17:48:46.141Z,99166.16
2022-09-26T17:51:15.149Z,99172.47
2022-09-26T17:53:51.080Z,99170.84
2022-09-26T17:56:20.338Z,99170.38
2022-09-26T17:58:49.728Z,99173.00
2022-09-26T18:01:23.547Z,99200.19
2022-09-26T18:03:56.340Z,99184.38
2022-09-26T18:06:26.994Z,99179.19
2022-09-26T18:08:59.758Z,99185.88
2022-09-26T18:11:29.349Z,99177.25
2022-09-26T18:13:58.068Z,99179.03
2022-09-26T18:16:26.849Z,99182.81
2022-09-26T18:18:57.160Z,99181.50
2022-09-26T18:21:26.421Z,99185.13
2022-09-26T18:23:58.230Z,99187.63
2022-09-26T18:26:30.075Z,99196.41
2022-09-26T18:28:59.659Z,99184.50
2022-09-26T18:31:31.239Z,99185.06
2022-09-26T18:34:03.229Z,99185.16
2022-09-26T18:36:34.016Z,99187.59
2022-09-26T18:39:02.821Z,99184.19
2022-09-26T18:41:31.704Z,99176.53
2022-09-26T18:44:02.938Z,99173.34
2022-09-26T18:46:31.564Z,99180.38
2022-09-26T18:49:08.582Z,99175.72
2022-09-26T18:51:38.916Z,99165.41
2022-09-26T18:54:11.781Z,99177.84
2022-09-26T18:56:58.004Z,99178.59
2022-09-26T18:59:29.028Z,99173.00
2022-09-26T19:01:59.599Z,99166.50
2022-09-26T19:04:31.596Z,99169.00
2022-09-26T19:07:02.106Z,99171.66
2022-09-26T19:09:34.255Z,99165.97
2022-09-26T19:12:03.650Z,99170.00
2022-09-26T19:14:33.016Z,99172.00
2022-09-26T19:17:01.697Z,99168.00
2022-09-26T19:19:32.605Z,99172.25
2022-09-26T19:22:08.083Z,99168.34
2022-09-26T19:24:39.113Z,99162.69
2022-09-26T19:27:10.931Z,99165.59
2022-09-26T19:29:42.276Z,99157.25
2022-09-26T19:32:19.335Z,99157.25
2022-09-26T19:34:51.854Z,99149.13
2022-09-26T19:37:20.508Z,99157.25
2022-09-26T19:39:49.313Z,99156.63
2022-09-26T19:42:18.423Z,99151.88
2022-09-26T19:44:47.106Z,99148.13
2022-09-26T19:47:17.377Z,99156.25
2022-09-26T19:49:47.235Z,99153.97
2022-09-26T19:52:20.494Z,99158.47
2022-09-26T19:54:53.345Z,99157.19
2022-09-26T19:57:51.467Z,99155.25
2022-09-26T20:00:26.578Z,99159.44
2022-09-26T20:03:30.295Z,99155.13
2022-09-26T20:06:32.494Z,99157.66
2022-09-26T20:09:32.328Z,99162.03
2022-09-26T20:12:06.215Z,99162.72
2022-09-26T20:14:58.822Z,99155.28
2022-09-26T20:17:58.519Z,99155.00
2022-09-26T20:20:54.907Z,99153.72
2022-09-26T20:23:52.910Z,99155.06
2022-09-26T20:26:48.198Z,99154.25
2022-09-26T20:30:04.169Z,99153.41
2022-09-26T20:33:01.412Z,99150.97
2022-09-26T20:36:03.205Z,99148.13
2022-09-26T20:38:43.551Z,99151.31
2022-09-26T20:41:15.289Z,99148.00
2022-09-26T20:43:49.887Z,99139.78
2022-09-26T20:46:21.791Z,99144.25
2022-09-26T20:48:51.600Z,99135.97
2022-09-26T20:51:22.724Z,99138.97
2022-09-26T20:53:52.207Z,99139.31
2022-09-26T20:56:22.060Z,99133.00
2022-09-26T20:58:52.592Z,99136.00
2022-09-26T21:01:23.083Z,99139.66
2022-09-26T21:03:53.352Z,99136.38
2022-09-26T21:06:24.045Z,99134.53
2022-09-26T21:08:53.045Z,99134.16
2022-09-26T21:11:23.095Z,99134.00
2022-09-26T21:13:53.843Z,99130.72
2022-09-26T21:16:24.059Z,99130.38
2022-09-26T21:18:54.752Z,99126.72
2022-09-26T21:21:25.981Z,99130.38
2022-09-26T21:24:05.581Z,99116.78
2022-09-26T21:26:34.958Z,99117.06
2022-09-26T21:29:07.883Z,99120.53
2022-09-26T21:31:36.798Z,99123.00
2022-09-26T21:34:06.294Z,99112.28
2022-09-26T21:36:37.396Z,99108.19
2022-09-26T21:39:07.618Z,99109.19
2022-09-26T21:41:37.370Z,99110.53
2022-09-26T21:44:11.555Z,99109.25
2022-09-26T21:46:40.020Z,99106.94
2022-09-26T21:49:08.776Z,99106.94
2022-09-26T21:51:37.943Z,99105.94
2022-09-26T21:54:09.113Z,99102.13
2022-09-26T21:56:40.648Z,99108.25
2022-09-26T21:59:10.840Z,99105.25
2022-09-26T22:01:39.330Z,99095.66
2022-09-26T22:04:08.522Z,99100.59
2022-09-26T22:06:37.339Z,99100.41
2022-09-26T22:09:06.371Z,99088.66
2022-09-26T22:11:37.581Z,99095.88
2022-09-26T22:14:06.397Z,99090.69
2022-09-26T22:16:36.151Z,99090.97
2022-09-26T22:19:05.527Z,99098.94
2022-09-26T22:21:34.223Z,99098.94
2022-09-26T22:24:03.469Z,99096.56
2022-09-26T22:26:32.185Z,99094.28
2022-09-26T22:29:00.816Z,99098.56
2022-09-26T22:31:29.120Z,99094.56
2022-09-26T22:33:59.545Z,99085.63
2022-09-26T22:36:28.047Z,99081.97
2022-09-26T22:38:56.753Z,99083.13
2022-09-26T22:41:25.430Z,99073.38
2022-09-26T22:43:54.399Z,99078.19
2022-09-26T22:46:23.341Z,99078.47
2022-09-26T22:48:52.163Z,99070.16
2022-09-26T22:51:22.221Z,99071.81
2022-09-26T22:53:51.004Z,99067.06
2022-09-26T22:56:19.949Z,99062.06
2022-09-26T22:58:49.884Z,99072.38
2022-09-26T23:01:22.417Z,99065.94
2022-09-26T23:03:52.066Z,99062.28
2022-09-26T23:06:22.680Z,99061.00
2022-09-26T23:08:51.836Z,99063.50
2022-09-26T23:11:22.027Z,99051.25
2022-09-26T23:13:51.792Z,99057.00
2022-09-26T23:16:22.514Z,99062.84
2022-09-26T23:18:52.817Z,99051.41
2022-09-26T23:21:24.498Z,99059.84
2022-09-26T23:23:55.160Z,99051.25
2022-09-26T23:26:25.685Z,99054.34
2022-09-26T23:28:56.888Z,99049.41
2022-09-26T23:31:27.604Z,99049.75
2022-09-26T23:33:58.949Z,99051.59
2022-09-26T23:36:29.006Z,99041.00
2022-09-26T23:38:58.448Z,99039.72
2022-09-26T23:41:27.116Z,99038.06
2022-09-26T23:43:55.400Z,99046.38
2022-09-26T23:46:24.268Z,99041.97
2022-09-26T23:48:53.059Z,99046.00
2022-09-26T23:51:22.008Z,99040.50
2022-09-26T23:53:52.343Z,99042.97
2022-09-26T23:56:21.315Z,99041.97
2022-09-26T23:58:49.680Z,99046.56
